Emden — 3ERP5 — position and weather

sailwx.info

Track history (hours):
 
Tides and Currents Weather Stations Pressure Air Temp Water Temp Dewpoint Dewpoint Depression Visibility Wind Speed Wind Dir Waves Ship Positions

Emden

Last reported at 2016-Aug-24 12:32 UTC. Time now 2016-Aug-24 13:43 UTC.
Position N 53°20' E 007°11'.

Length 177 m; draft 7 m.

Type: Ship. MMSI: 355051000.

Date/timePositionNaut miles runAvg speedWind from/ knotsBaromVisibWave heightAir tempDewpointWater temp
2016-Aug-24 12:32N 53°20' E 007°11'0 0.0
2016-Aug-24 11:32N 53°20' E 007°11'0 0.0
2016-Aug-24 10:32N 53°20' E 007°11'0 0.0
2016-Aug-24 09:32N 53°20' E 007°11'0 0.0
2016-Aug-24 08:32N 53°20' E 007°11'0 0.0
2016-Aug-24 07:29N 53°20' E 007°11'0 0.0
2016-Aug-24 06:32N 53°20' E 007°11'0 0.0
2016-Aug-24 04:25N 53°20' E 007°11'0 0.0
2016-Aug-24 03:31N 53°20' E 007°11'0 0.0
2016-Aug-24 02:31N 53°20' E 007°11'0 0.0
2016-Aug-24 01:31N 53°20' E 007°11'0 0.0
2016-Aug-24 00:31N 53°20' E 007°11'0 0.0
2016-Aug-23 23:31N 53°20' E 007°11'0 0.0
2016-Aug-23 22:28N 53°20' E 007°11'0 0.0
2016-Aug-23 21:28N 53°20' E 007°11'0 0.0
2016-Aug-23 20:31N 53°20' E 007°11'0 0.0
2016-Aug-23 19:28N 53°20' E 007°11'0 0.0
2016-Aug-23 18:31N 53°20' E 007°11'0 0.0
2016-Aug-23 17:22N 53°20' E 007°11'0 0.0
2016-Aug-23 16:31N 53°20' E 007°11'0 0.2
2016-Aug-23 15:33N 53°20' E 007°11'9 8.7
2016-Aug-23 14:33N 53°24' E 006°57'1515.4
2016-Aug-23 13:33N 53°34' E 006°39'1313.1
2016-Aug-23 12:34N 53°38' E 006°18'8 7.5
2016-Aug-23 11:34N 53°41' E 006°06'1514.8
2016-Aug-23 10:33N 53°37' E 005°42'1515.2
2016-Aug-23 09:33N 53°33' E 005°18'1615.5
2016-Aug-23 08:33N 53°27' E 004°53'1514.9
2016-Aug-23 07:33N 53°16' E 004°36'1515.4
2016-Aug-23 06:33N 53°03' E 004°23'1515.3
2016-Aug-23 05:33N 52°49' E 004°11'1515.3
2016-Aug-23 04:33N 52°37' E 003°56'1515.2
2016-Aug-23 03:33N 52°27' E 003°38'1514.8
2016-Aug-23 02:33N 52°16' E 003°20'1514.2
2016-Aug-23 01:32N 52°06' E 003°03'1313.6
2016-Aug-23 00:33N 51°56' E 002°48'1313.1
2016-Aug-22 23:33N 51°46' E 002°35'1313.0
2016-Aug-22 22:33N 51°36' E 002°22'1313.2
2016-Aug-22 21:34N 51°25' E 002°11'1413.5
2016-Aug-22 20:33N 51°13' E 002°00'1413.7
2016-Aug-22 19:34N 51°05' E 001°43'1414.4
2016-Aug-22 18:33N 50°54' E 001°28'1514.7
2016-Aug-22 17:33N 50°41' E 001°17'3214.3
2016-Aug-22 15:20N 50°25' E 000°34'1114.3
2016-Aug-22 14:33N 50°22' E 000°17'1514.8
2016-Aug-22 13:34N 50°19' W 000°06'1615.9
2016-Aug-22 12:33N 50°15' W 000°30'1717.0
2016-Aug-22 11:33N 50°10' W 000°56'1818.3
2016-Aug-22 10:33N 50°05' W 001°23'2018.7
2016-Aug-22 09:30N 49°59' W 001°52'1617.5
2016-Aug-22 08:33N 49°56' W 002°17'1816.5
2016-Aug-22 07:28N 49°51' W 002°44'1516.2
2016-Aug-22 06:34N 49°45' W 003°05'1615.7
2016-Aug-22 05:33N 49°36' W 003°26'1515.2
2016-Aug-22 04:33N 49°29' W 003°46'1515.2
2016-Aug-22 03:33N 49°21' W 004°06'1414.4
2016-Aug-22 02:33N 49°14' W 004°25'1413.9
2016-Aug-22 01:33N 49°08' W 004°44'1413.6
2016-Aug-22 00:34N 49°01' W 005°02'1313.4
2016-Aug-21 23:33N 48°54' W 005°20'1413.9
2016-Aug-21 22:34N 48°46' W 005°37'1414.0
2016-Aug-21 21:34N 48°34' W 005°46'1514.7
2016-Aug-21 20:33N 48°21' W 005°57'1715.1
2016-Aug-21 19:26N 48°05' W 006°08'1515.6
2016-Aug-21 18:30N 47°52' W 006°17'1516.0
2016-Aug-21 17:33N 47°39' W 006°27'51612.2
2016-Aug-19 23:21N 39°24' W 009°51'1012.9
2016-Aug-19 22:34N 39°14' W 009°52'1313.1
2016-Aug-19 21:33N 39°01' W 009°52'1313.2
2016-Aug-19 20:33N 38°48' W 009°52'1312.5
2016-Aug-19 19:33N 38°36' W 009°46'1514.7
2016-Aug-19 18:33N 38°27' W 009°32'1413.6
2016-Aug-19 17:33N 38°20' W 009°17'1313.4
2016-Aug-19 16:34N 38°25' W 009°01'9 8.6
2016-Aug-19 15:33N 38°31' W 008°53'1 0.9
2016-Aug-19 14:32N 38°31' W 008°52'0 0.0
2016-Aug-19 13:32N 38°31' W 008°52'0 0.0
2016-Aug-19 12:32N 38°31' W 008°52'0 0.0
2016-Aug-19 11:29N 38°31' W 008°52'0 0.0
2016-Aug-19 10:26N 38°31' W 008°52'0 0.0
2016-Aug-19 02:29N 38°31' W 008°52'0 0.0
2016-Aug-19 01:29N 38°31' W 008°52'0 0.0
2016-Aug-19 00:32N 38°31' W 008°52'0 0.0
2016-Aug-18 23:32N 38°31' W 008°52'0 0.0
2016-Aug-18 22:32N 38°31' W 008°52'0 0.0
2016-Aug-18 21:32N 38°31' W 008°52'2 1.9
2016-Aug-18 20:32N 38°31' W 008°54'8 8.5
2016-Aug-18 19:33N 38°24' W 009°01'2 1.6
2016-Aug-18 18:33N 38°23' W 009°02'5 4.6
2016-Aug-18 17:33N 38°19' W 009°06'1413.9
2016-Aug-18 16:33N 38°21' W 009°24'1414.3
2016-Aug-18 15:33N 38°26' W 009°41'1414.1
2016-Aug-18 14:33N 38°32' W 009°57'1413.7
2016-Aug-18 13:33N 38°44' W 010°06'1414.5
2016-Aug-18 12:33N 38°59' W 010°06'1414.2
2016-Aug-18 11:33N 39°13' W 010°07'1414.4
2016-Aug-18 10:33N 39°27' W 010°08'1614.4
2016-Aug-18 09:28N 39°43' W 010°07'58214.2
2016-Aug-16 16:29N 49°12' W 007°10'1813.5
2016-Aug-16 15:09N 49°29' W 007°03'813.3
2016-Aug-16 14:34N 49°36' W 006°59'1413.3
2016-Aug-16 13:29N 49°50' W 006°51'1212.8
2016-Aug-16 12:33N 50°01' W 006°46'1212.5
2016-Aug-16 11:33N 50°13' W 006°41'1312.9
2016-Aug-16 10:33N 50°26' W 006°35'1414.1
2016-Aug-16 09:33N 50°39' W 006°28'1413.9
2016-Aug-16 08:33N 50°52' W 006°23'1413.9
2016-Aug-16 07:33N 51°06' W 006°16'3913.1
2016-Aug-16 04:33N 51°43' W 005°58'1312.8
2016-Aug-16 03:34N 51°56' W 005°55'1413.8
2016-Aug-16 02:34N 52°10' W 005°54'72 2.7
2016-Aug-15 00:20N 53°21' W 006°10'7 7.3
2016-Aug-14 23:23N 53°16' W 006°01'9112.7
2016-Aug-14 16:14N 51°46' W 005°49'1214.6
2016-Aug-14 15:27N 51°35' W 005°51'1714.3
2016-Aug-14 14:18N 51°18' W 005°52'1114.4
2016-Aug-14 13:32N 51°07' W 005°52'1414.2
2016-Aug-14 12:33N 50°53' W 005°53'  
Track history (hours):
 
Tides and Currents Weather Stations Pressure Air Temp Water Temp Dewpoint Dewpoint Depression Visibility Wind Speed Wind Dir Waves Ship Positions

Emden

Last reported at 2016-Aug-24 12:32 UTC. Time now 2016-Aug-24 13:43 UTC.
Position N 53°20' E 007°11'.

Length 177 m; draft 7 m.

Type: Ship. MMSI: 355051000.

Date/timePositionNaut miles runAvg speedWind from/ knotsBaromVisibWave heightAir tempDewpointWater temp
2016-Aug-24 12:32N 53°20' E 007°11'0 0.0
2016-Aug-24 11:32N 53°20' E 007°11'0 0.0
2016-Aug-24 10:32N 53°20' E 007°11'0 0.0
2016-Aug-24 09:32N 53°20' E 007°11'0 0.0
2016-Aug-24 08:32N 53°20' E 007°11'0 0.0
2016-Aug-24 07:29N 53°20' E 007°11'0 0.0
2016-Aug-24 06:32N 53°20' E 007°11'0 0.0
2016-Aug-24 04:25N 53°20' E 007°11'0 0.0
2016-Aug-24 03:31N 53°20' E 007°11'0 0.0
2016-Aug-24 02:31N 53°20' E 007°11'0 0.0
2016-Aug-24 01:31N 53°20' E 007°11'0 0.0
2016-Aug-24 00:31N 53°20' E 007°11'0 0.0
2016-Aug-23 23:31N 53°20' E 007°11'0 0.0
2016-Aug-23 22:28N 53°20' E 007°11'0 0.0
2016-Aug-23 21:28N 53°20' E 007°11'0 0.0
2016-Aug-23 20:31N 53°20' E 007°11'0 0.0
2016-Aug-23 19:28N 53°20' E 007°11'0 0.0
2016-Aug-23 18:31N 53°20' E 007°11'0 0.0
2016-Aug-23 17:22N 53°20' E 007°11'0 0.0
2016-Aug-23 16:31N 53°20' E 007°11'0 0.2
2016-Aug-23 15:33N 53°20' E 007°11'9 8.7
2016-Aug-23 14:33N 53°24' E 006°57'1515.4
2016-Aug-23 13:33N 53°34' E 006°39'1313.1
2016-Aug-23 12:34N 53°38' E 006°18'8 7.5
2016-Aug-23 11:34N 53°41' E 006°06'1514.8
2016-Aug-23 10:33N 53°37' E 005°42'1515.2
2016-Aug-23 09:33N 53°33' E 005°18'1615.5
2016-Aug-23 08:33N 53°27' E 004°53'1514.9
2016-Aug-23 07:33N 53°16' E 004°36'1515.4
2016-Aug-23 06:33N 53°03' E 004°23'1515.3
2016-Aug-23 05:33N 52°49' E 004°11'1515.3
2016-Aug-23 04:33N 52°37' E 003°56'1515.2
2016-Aug-23 03:33N 52°27' E 003°38'1514.8
2016-Aug-23 02:33N 52°16' E 003°20'1514.2
2016-Aug-23 01:32N 52°06' E 003°03'1313.6
2016-Aug-23 00:33N 51°56' E 002°48'1313.1
2016-Aug-22 23:33N 51°46' E 002°35'1313.0
2016-Aug-22 22:33N 51°36' E 002°22'1313.2
2016-Aug-22 21:34N 51°25' E 002°11'1413.5
2016-Aug-22 20:33N 51°13' E 002°00'1413.7
2016-Aug-22 19:34N 51°05' E 001°43'1414.4
2016-Aug-22 18:33N 50°54' E 001°28'1514.7
2016-Aug-22 17:33N 50°41' E 001°17'3214.3
2016-Aug-22 15:20N 50°25' E 000°34'1114.3
2016-Aug-22 14:33N 50°22' E 000°17'1514.8
2016-Aug-22 13:34N 50°19' W 000°06'1615.9
2016-Aug-22 12:33N 50°15' W 000°30'1717.0
2016-Aug-22 11:33N 50°10' W 000°56'1818.3
2016-Aug-22 10:33N 50°05' W 001°23'2018.7
2016-Aug-22 09:30N 49°59' W 001°52'1617.5
2016-Aug-22 08:33N 49°56' W 002°17'1816.5
2016-Aug-22 07:28N 49°51' W 002°44'1516.2
2016-Aug-22 06:34N 49°45' W 003°05'1615.7
2016-Aug-22 05:33N 49°36' W 003°26'1515.2
2016-Aug-22 04:33N 49°29' W 003°46'1515.2
2016-Aug-22 03:33N 49°21' W 004°06'1414.4
2016-Aug-22 02:33N 49°14' W 004°25'1413.9
2016-Aug-22 01:33N 49°08' W 004°44'1413.6
2016-Aug-22 00:34N 49°01' W 005°02'1313.4
2016-Aug-21 23:33N 48°54' W 005°20'1413.9
2016-Aug-21 22:34N 48°46' W 005°37'1414.0
2016-Aug-21 21:34N 48°34' W 005°46'1514.7
2016-Aug-21 20:33N 48°21' W 005°57'1715.1
2016-Aug-21 19:26N 48°05' W 006°08'1515.6
2016-Aug-21 18:30N 47°52' W 006°17'1516.0
2016-Aug-21 17:33N 47°39' W 006°27'51612.2
2016-Aug-19 23:21N 39°24' W 009°51'1012.9
2016-Aug-19 22:34N 39°14' W 009°52'1313.1
2016-Aug-19 21:33N 39°01' W 009°52'1313.2
2016-Aug-19 20:33N 38°48' W 009°52'1312.5
2016-Aug-19 19:33N 38°36' W 009°46'1514.7
2016-Aug-19 18:33N 38°27' W 009°32'1413.6
2016-Aug-19 17:33N 38°20' W 009°17'1313.4
2016-Aug-19 16:34N 38°25' W 009°01'9 8.6
2016-Aug-19 15:33N 38°31' W 008°53'1 0.9
2016-Aug-19 14:32N 38°31' W 008°52'0 0.0
2016-Aug-19 13:32N 38°31' W 008°52'0 0.0
2016-Aug-19 12:32N 38°31' W 008°52'0 0.0
2016-Aug-19 11:29N 38°31' W 008°52'0 0.0
2016-Aug-19 10:26N 38°31' W 008°52'0 0.0
2016-Aug-19 02:29N 38°31' W 008°52'0 0.0
2016-Aug-19 01:29N 38°31' W 008°52'0 0.0
2016-Aug-19 00:32N 38°31' W 008°52'0 0.0
2016-Aug-18 23:32N 38°31' W 008°52'0 0.0
2016-Aug-18 22:32N 38°31' W 008°52'0 0.0
2016-Aug-18 21:32N 38°31' W 008°52'2 1.9
2016-Aug-18 20:32N 38°31' W 008°54'8 8.5
2016-Aug-18 19:33N 38°24' W 009°01'2 1.6
2016-Aug-18 18:33N 38°23' W 009°02'5 4.6
2016-Aug-18 17:33N 38°19' W 009°06'1413.9
2016-Aug-18 16:33N 38°21' W 009°24'1414.3
2016-Aug-18 15:33N 38°26' W 009°41'1414.1
2016-Aug-18 14:33N 38°32' W 009°57'1413.7
2016-Aug-18 13:33N 38°44' W 010°06'1414.5
2016-Aug-18 12:33N 38°59' W 010°06'1414.2
2016-Aug-18 11:33N 39°13' W 010°07'1414.4
2016-Aug-18 10:33N 39°27' W 010°08'1614.4
2016-Aug-18 09:28N 39°43' W 010°07'58214.2
2016-Aug-16 16:29N 49°12' W 007°10'1813.5
2016-Aug-16 15:09N 49°29' W 007°03'813.3
2016-Aug-16 14:34N 49°36' W 006°59'1413.3
2016-Aug-16 13:29N 49°50' W 006°51'1212.8
2016-Aug-16 12:33N 50°01' W 006°46'1212.5
2016-Aug-16 11:33N 50°13' W 006°41'1312.9
2016-Aug-16 10:33N 50°26' W 006°35'1414.1
2016-Aug-16 09:33N 50°39' W 006°28'1413.9
2016-Aug-16 08:33N 50°52' W 006°23'1413.9
2016-Aug-16 07:33N 51°06' W 006°16'3913.1
2016-Aug-16 04:33N 51°43' W 005°58'1312.8
2016-Aug-16 03:34N 51°56' W 005°55'1413.8
2016-Aug-16 02:34N 52°10' W 005°54'72 2.7
2016-Aug-15 00:20N 53°21' W 006°10'7 7.3
2016-Aug-14 23:23N 53°16' W 006°01'9112.7
2016-Aug-14 16:14N 51°46' W 005°49'1214.6
2016-Aug-14 15:27N 51°35' W 005°51'1714.3
2016-Aug-14 14:18N 51°18' W 005°52'1114.4
2016-Aug-14 13:32N 51°07' W 005°52'1414.2
2016-Aug-14 12:33N 50°53' W 005°53'  

Dump ship's entire track history